createdAt,value
2018-07-17T00:01:19.941Z,10.37
2018-07-17T00:03:48.644Z,11.80
2018-07-17T00:06:17.448Z,11.50
2018-07-17T00:08:46.508Z,10.30
2018-07-17T00:11:14.558Z,10.30
2018-07-17T00:13:43.528Z,10.90
2018-07-17T00:16:11.533Z,10.73
2018-07-17T00:18:39.634Z,11.50
2018-07-17T00:21:07.738Z,10.20
2018-07-17T00:23:36.584Z,9.80
2018-07-17T00:26:04.742Z,10.47
2018-07-17T00:28:32.825Z,11.37
2018-07-17T00:31:01.021Z,11.37
2018-07-17T00:33:29.354Z,10.60
2018-07-17T00:35:57.551Z,10.63
2018-07-17T00:38:25.824Z,11.10
2018-07-17T00:40:53.868Z,9.33
2018-07-17T00:43:21.834Z,10.80
2018-07-17T00:45:49.961Z,10.53
2018-07-17T00:48:18.136Z,11.20
2018-07-17T00:50:46.296Z,11.10
2018-07-17T00:53:14.266Z,11.47
2018-07-17T00:55:42.786Z,10.53
2018-07-17T00:58:10.725Z,11.00
2018-07-17T01:00:44.181Z,12.83
2018-07-17T01:03:17.485Z,11.13
2018-07-17T01:05:50.805Z,10.93
2018-07-17T01:08:24.104Z,11.70
2018-07-17T01:10:58.231Z,11.27
2018-07-17T01:13:34.269Z,11.00
2018-07-17T01:16:02.379Z,9.87
2018-07-17T01:18:30.613Z,11.20
2018-07-17T01:20:58.866Z,9.57
2018-07-17T01:23:27.178Z,9.53
2018-07-17T01:25:55.315Z,11.13
2018-07-17T01:28:23.268Z,11.13
2018-07-17T01:30:51.278Z,10.40
2018-07-17T01:33:19.449Z,9.77
2018-07-17T01:35:47.907Z,10.20
2018-07-17T01:38:16.000Z,11.23
2018-07-17T01:40:44.061Z,10.63
2018-07-17T01:43:12.039Z,10.93
2018-07-17T01:45:39.999Z,11.50
2018-07-17T01:48:07.988Z,10.07
2018-07-17T01:50:36.003Z,10.67
2018-07-17T01:53:04.082Z,9.80
2018-07-17T01:55:32.345Z,11.90
2018-07-17T01:58:00.634Z,10.17
2018-07-17T02:00:28.810Z,10.67
2018-07-17T02:02:57.117Z,9.87
2018-07-17T02:05:25.171Z,12.83
2018-07-17T02:07:53.137Z,10.80
2018-07-17T02:10:21.164Z,10.10
2018-07-17T02:12:50.304Z,10.37
2018-07-17T02:15:18.404Z,10.70
2018-07-17T02:17:46.364Z,12.00
2018-07-17T02:20:14.308Z,11.67
2018-07-17T02:22:42.296Z,11.30
2018-07-17T02:25:10.250Z,9.87
2018-07-17T02:27:38.203Z,10.70
2018-07-17T02:30:06.256Z,11.77
2018-07-17T02:32:34.325Z,11.23
2018-07-17T02:35:02.450Z,11.07
2018-07-17T02:37:30.707Z,12.13
2018-07-17T02:39:58.945Z,11.00
2018-07-17T02:42:27.084Z,10.93
2018-07-17T02:44:55.339Z,11.60
2018-07-17T02:47:23.347Z,10.87
2018-07-17T02:49:51.347Z,11.13
2018-07-17T02:52:19.360Z,10.60
2018-07-17T02:54:47.424Z,12.37
2018-07-17T02:57:15.429Z,11.33
2018-07-17T02:59:43.472Z,11.90
2018-07-17T03:02:11.529Z,11.63
2018-07-17T03:04:39.513Z,12.10
2018-07-17T03:07:07.588Z,12.27
2018-07-17T03:09:35.543Z,12.70
2018-07-17T03:12:03.640Z,12.63
2018-07-17T03:14:31.864Z,15.07
2018-07-17T03:17:00.069Z,13.93
2018-07-17T03:19:28.230Z,13.60
2018-07-17T03:21:56.574Z,14.37
2018-07-17T03:24:24.613Z,12.30
2018-07-17T03:26:52.640Z,15.27
2018-07-17T03:29:20.652Z,13.90
2018-07-17T03:31:48.829Z,13.10
2018-07-17T03:34:16.866Z,14.10
2018-07-17T03:36:44.892Z,13.50
2018-07-17T03:39:12.973Z,11.43
2018-07-17T03:41:41.026Z,12.23
2018-07-17T03:44:09.017Z,11.67
2018-07-17T03:46:37.373Z,11.13
2018-07-17T03:49:05.381Z,12.27
2018-07-17T03:51:33.520Z,12.90
2018-07-17T03:54:01.563Z,11.47
2018-07-17T03:56:29.882Z,12.77
2018-07-17T03:58:58.159Z,11.33
2018-07-17T04:01:26.422Z,12.30
2018-07-17T04:03:54.388Z,12.50
2018-07-17T04:06:22.597Z,12.67
2018-07-17T04:08:50.740Z,12.83
2018-07-17T04:11:18.805Z,11.43
2018-07-17T04:13:46.769Z,12.37
2018-07-17T04:16:14.829Z,12.50
2018-07-17T04:18:42.837Z,12.97
2018-07-17T04:21:10.802Z,13.07
2018-07-17T04:23:38.920Z,11.10
2018-07-17T04:26:06.926Z,11.90
2018-07-17T04:28:34.893Z,11.97
2018-07-17T04:31:03.009Z,10.70
2018-07-17T04:33:31.134Z,10.20
2018-07-17T04:35:59.392Z,11.57
2018-07-17T04:38:27.655Z,9.70
2018-07-17T04:40:55.724Z,9.57
2018-07-17T04:43:23.828Z,10.90
2018-07-17T04:45:51.909Z,9.07
2018-07-17T04:48:20.094Z,9.40
2018-07-17T04:50:48.252Z,9.20
2018-07-17T04:53:16.397Z,8.80
2018-07-17T04:55:44.412Z,9.67
2018-07-17T04:58:12.385Z,8.57
2018-07-17T05:00:40.401Z,8.53
2018-07-17T05:03:08.421Z,8.10
2018-07-17T05:05:36.441Z,8.03
2018-07-17T05:08:04.610Z,8.93
2018-07-17T05:10:32.762Z,8.33
2018-07-17T05:13:01.372Z,8.57
2018-07-17T05:15:30.128Z,8.70
2018-07-17T05:17:58.404Z,8.90
2018-07-17T05:20:26.714Z,8.40
2018-07-17T05:22:54.904Z,8.60
2018-07-17T05:25:22.888Z,8.90
2018-07-17T05:27:50.905Z,9.97
2018-07-17T05:30:19.233Z,7.80
2018-07-17T05:32:47.378Z,8.77
2018-07-17T05:35:15.385Z,8.07
2018-07-17T05:37:46.934Z,8.40
2018-07-17T05:40:14.942Z,7.93
2018-07-17T05:42:42.971Z,8.37
2018-07-17T05:45:11.021Z,8.10
2018-07-17T05:47:41.258Z,7.87
2018-07-17T05:50:10.428Z,7.70
2018-07-17T05:52:38.657Z,8.50
2018-07-17T05:55:07.284Z,7.90
2018-07-17T06:00:11.127Z,9.23
2018-07-17T06:02:39.695Z,9.40
2018-07-17T06:05:07.953Z,9.37
2018-07-17T06:07:36.481Z,9.00
2018-07-17T06:10:11.073Z,9.50
2018-07-17T06:12:39.526Z,9.97
2018-07-17T06:15:07.810Z,7.27
2018-07-17T06:20:13.066Z,7.30
2018-07-17T06:22:42.325Z,8.63
2018-07-17T06:25:10.757Z,7.93
2018-07-17T06:27:38.993Z,8.10
2018-07-17T06:30:08.040Z,7.37
2018-07-17T06:32:36.318Z,7.77
2018-07-17T06:35:04.879Z,8.00
2018-07-17T06:37:33.419Z,6.83
2018-07-17T06:40:02.729Z,7.80
2018-07-17T06:42:32.035Z,9.03
2018-07-17T06:45:01.054Z,7.93
2018-07-17T06:47:30.120Z,8.10
2018-07-17T06:49:59.275Z,7.90
2018-07-17T06:52:28.061Z,7.97
2018-07-17T06:54:56.590Z,8.30
2018-07-17T06:57:28.843Z,7.13
2018-07-17T06:59:57.888Z,7.50
2018-07-17T07:02:27.356Z,7.63
2018-07-17T07:04:55.964Z,9.37
2018-07-17T07:07:24.688Z,8.03
2018-07-17T07:09:53.028Z,8.40
2018-07-17T07:12:21.362Z,7.23
2018-07-17T07:14:54.706Z,8.20
2018-07-17T07:17:23.597Z,7.20
2018-07-17T07:19:52.033Z,8.07
2018-07-17T07:22:21.349Z,7.50
2018-07-17T07:24:49.748Z,8.57
2018-07-17T07:27:18.575Z,7.10
2018-07-17T07:29:47.273Z,6.97
2018-07-17T07:32:15.635Z,6.70
2018-07-17T07:34:43.844Z,7.10
2018-07-17T07:37:12.312Z,6.63
2018-07-17T07:39:40.790Z,6.40
2018-07-17T07:42:08.866Z,7.07
2018-07-17T07:44:37.134Z,6.00
2018-07-17T07:47:05.502Z,6.20
2018-07-17T07:49:33.981Z,5.53
2018-07-17T07:52:02.773Z,6.50
2018-07-17T07:54:31.777Z,6.23
2018-07-17T07:57:00.862Z,6.10
2018-07-17T07:59:29.350Z,6.20
2018-07-17T08:01:58.252Z,6.00
2018-07-17T08:05:01.527Z,6.60
2018-07-17T08:07:30.447Z,4.93
2018-07-17T08:09:59.339Z,8.00
2018-07-17T08:12:28.126Z,6.87
2018-07-17T08:14:56.814Z,6.00
2018-07-17T08:17:25.180Z,5.47
2018-07-17T08:19:54.452Z,6.73
2018-07-17T08:22:22.555Z,5.90
2018-07-17T08:24:53.060Z,6.53
2018-07-17T08:27:21.328Z,5.90
2018-07-17T08:29:50.301Z,5.93
2018-07-17T08:32:20.076Z,5.70
2018-07-17T08:34:48.631Z,6.00
2018-07-17T08:37:17.180Z,6.20
2018-07-17T08:39:45.827Z,6.20
2018-07-17T08:42:18.862Z,5.43
2018-07-17T08:44:48.738Z,5.87
2018-07-17T08:47:22.062Z,5.23
2018-07-17T08:49:50.478Z,6.43
2018-07-17T08:52:23.736Z,6.33
2018-07-17T08:54:57.899Z,5.70
2018-07-17T08:57:27.513Z,4.27
2018-07-17T08:59:56.838Z,5.57
2018-07-17T09:02:25.273Z,4.10
2018-07-17T09:04:53.812Z,5.17
2018-07-17T09:07:22.453Z,5.70
2018-07-17T09:09:50.966Z,5.07
2018-07-17T09:12:20.032Z,5.10
2018-07-17T09:14:48.743Z,4.30
2018-07-17T09:17:17.361Z,3.60
2018-07-17T09:19:45.774Z,5.60
2018-07-17T09:22:15.578Z,3.83
2018-07-17T09:24:43.759Z,4.37
2018-07-17T09:27:13.851Z,5.10
2018-07-17T09:29:42.233Z,4.80
2018-07-17T09:32:12.895Z,4.33
2018-07-17T09:34:41.476Z,4.17
2018-07-17T09:37:13.831Z,4.07
2018-07-17T09:39:42.241Z,4.17
2018-07-17T09:42:10.541Z,4.60
2018-07-17T09:44:39.595Z,4.27
2018-07-17T09:47:07.967Z,14.43
2018-07-17T09:49:36.257Z,6.40
2018-07-17T09:52:05.086Z,8.90
2018-07-17T09:54:33.944Z,7.37
2018-07-17T09:57:03.307Z,5.40
2018-07-17T09:59:32.070Z,5.27
2018-07-17T10:02:07.192Z,4.93
2018-07-17T10:04:35.444Z,4.20
2018-07-17T10:07:04.312Z,4.30
2018-07-17T10:09:33.100Z,4.30
2018-07-17T10:12:02.747Z,4.40
2018-07-17T10:14:32.459Z,3.63
2018-07-17T10:17:01.487Z,3.40
2018-07-17T10:19:31.279Z,4.37
2018-07-17T10:22:00.388Z,10.43
2018-07-17T10:24:29.664Z,7.63
2018-07-17T10:26:59.441Z,7.07
2018-07-17T10:29:34.522Z,13.33
2018-07-17T10:32:07.479Z,5.70
2018-07-17T10:34:36.670Z,31.93
2018-07-17T10:37:05.479Z,12.73
2018-07-17T10:39:34.475Z,4.60
2018-07-17T10:42:03.366Z,3.20
2018-07-17T10:44:37.116Z,22.03
2018-07-17T10:47:06.134Z,10.00
2018-07-17T10:49:34.751Z,10.47
2018-07-17T10:52:04.094Z,31.23
2018-07-17T10:54:33.177Z,9.23
2018-07-17T10:57:02.116Z,6.70
2018-07-17T10:59:31.464Z,5.10
2018-07-17T11:02:00.732Z,6.00
2018-07-17T11:04:30.185Z,5.37
2018-07-17T11:07:00.238Z,5.10
2018-07-17T11:09:34.750Z,4.70
2018-07-17T11:12:04.191Z,4.20
2018-07-17T11:14:33.316Z,3.53
2018-07-17T11:17:02.155Z,5.17
2018-07-17T11:19:31.353Z,4.43
2018-07-17T11:22:01.906Z,4.20
2018-07-17T11:24:31.734Z,3.80
2018-07-17T11:27:01.121Z,4.07
2018-07-17T11:29:30.620Z,4.10
2018-07-17T11:32:01.636Z,3.47
2018-07-17T11:34:30.581Z,2.60
2018-07-17T11:36:59.623Z,3.30
2018-07-17T11:39:29.089Z,3.20
2018-07-17T11:41:58.091Z,3.63
2018-07-17T11:44:27.939Z,7.60
2018-07-17T11:46:57.127Z,4.40
2018-07-17T11:49:26.109Z,5.00
2018-07-17T11:51:55.838Z,4.90
2018-07-17T11:54:24.262Z,3.27
2018-07-17T11:56:52.673Z,3.33
2018-07-17T11:59:21.905Z,3.43
2018-07-17T12:01:50.381Z,4.00
2018-07-17T12:04:19.281Z,5.00
2018-07-17T12:06:57.983Z,5.10
2018-07-17T12:09:35.427Z,3.90
2018-07-17T12:23:17.092Z,3.93
2018-07-17T12:25:50.512Z,4.70
2018-07-17T12:53:20.398Z,6.70
2018-07-17T12:55:53.314Z,4.60
2018-07-17T13:01:12.206Z,3.53
2018-07-17T13:22:32.145Z,4.13
2018-07-17T13:30:33.780Z,12.13
2018-07-17T13:38:31.075Z,2.40
2018-07-17T13:43:49.970Z,3.47
2018-07-17T13:51:37.823Z,1.83
2018-07-17T13:54:07.142Z,2.60
2018-07-17T13:56:38.598Z,4.90
2018-07-17T13:59:14.956Z,21.30
2018-07-17T14:12:35.212Z,2.73
2018-07-17T14:15:07.921Z,2.90
2018-07-17T14:20:21.449Z,2.03
2018-07-17T14:25:35.080Z,2.83
2018-07-17T14:36:30.789Z,3.00
2018-07-17T14:41:41.109Z,3.30
2018-07-17T14:44:09.868Z,3.93
2018-07-17T14:46:46.177Z,5.63
2018-07-17T14:49:14.563Z,4.13
2018-07-17T15:03:20.007Z,5.30
2018-07-17T15:14:20.202Z,7.13
2018-07-17T15:16:53.825Z,8.00
2018-07-17T15:21:59.739Z,8.17
2018-07-17T15:24:33.407Z,5.30
2018-07-17T15:27:02.204Z,5.33
2018-07-17T15:29:33.238Z,3.13
2018-07-17T15:32:02.187Z,2.90
2018-07-17T15:34:32.133Z,3.47
2018-07-17T15:39:58.462Z,3.43
2018-07-17T15:42:26.996Z,3.10
2018-07-17T15:44:58.725Z,4.50
2018-07-17T15:50:15.697Z,3.27
2018-07-17T15:55:27.297Z,3.23
2018-07-17T15:57:59.237Z,3.50
2018-07-17T16:00:35.264Z,3.03
2018-07-17T16:03:03.694Z,3.30
2018-07-17T16:05:32.841Z,3.57
2018-07-17T16:08:08.436Z,3.83
2018-07-17T16:13:10.929Z,3.97
2018-07-17T16:15:39.079Z,3.63
2018-07-17T16:18:07.788Z,3.70
2018-07-17T16:20:36.653Z,3.83
2018-07-17T16:23:05.332Z,3.87
2018-07-17T16:25:33.609Z,3.83
2018-07-17T16:28:02.253Z,3.60
2018-07-17T16:30:31.401Z,4.23
2018-07-17T16:32:59.978Z,3.83
2018-07-17T16:35:28.589Z,3.53
2018-07-17T16:37:58.339Z,4.10
2018-07-17T16:40:27.937Z,3.77
2018-07-17T16:42:56.209Z,3.50
2018-07-17T16:45:25.398Z,4.03
2018-07-17T16:47:53.620Z,3.00
2018-07-17T16:50:21.936Z,3.03
2018-07-17T16:52:50.595Z,3.63
2018-07-17T16:55:18.998Z,3.60
2018-07-17T16:57:47.238Z,3.43
2018-07-17T17:00:15.363Z,3.17
2018-07-17T17:02:43.809Z,3.50
2018-07-17T17:05:11.933Z,3.30
2018-07-17T17:07:40.346Z,3.80
2018-07-17T17:10:08.462Z,3.93
2018-07-17T17:12:36.801Z,3.73
2018-07-17T17:15:05.338Z,3.67
2018-07-17T17:17:33.962Z,3.47
2018-07-17T17:20:02.663Z,3.63
2018-07-17T17:22:31.344Z,3.10
2018-07-17T17:24:59.909Z,3.13
2018-07-17T17:27:28.409Z,4.10
2018-07-17T17:29:56.943Z,3.10
2018-07-17T17:32:25.340Z,2.97
2018-07-17T17:34:53.774Z,4.30
2018-07-17T17:37:22.016Z,4.00
2018-07-17T17:42:42.058Z,6.00
2018-07-17T17:50:39.766Z,6.20
2018-07-17T17:53:17.059Z,7.70
2018-07-17T17:55:46.126Z,9.10
2018-07-17T17:58:19.406Z,10.13
2018-07-17T18:00:48.091Z,8.20
2018-07-17T18:03:17.072Z,6.00
2018-07-17T18:05:46.239Z,6.20
2018-07-17T18:08:14.466Z,6.60
2018-07-17T18:10:44.033Z,6.97
2018-07-17T18:13:12.384Z,6.20
2018-07-17T18:18:22.251Z,7.10
2018-07-17T18:20:51.758Z,7.10
2018-07-17T18:23:20.540Z,8.70
2018-07-17T18:25:48.864Z,5.30
2018-07-17T18:28:17.739Z,5.70
2018-07-17T18:30:53.396Z,5.53
2018-07-17T18:33:32.142Z,5.53
2018-07-17T18:41:36.026Z,5.70
2018-07-17T19:04:21.872Z,5.00
2018-07-17T19:06:57.072Z,4.93
2018-07-17T19:09:29.669Z,4.03
2018-07-17T19:12:08.298Z,5.10
2018-07-17T19:14:36.707Z,4.73
2018-07-17T19:17:09.154Z,4.40
2018-07-17T19:19:49.350Z,4.70
2018-07-17T19:22:17.449Z,5.87
2018-07-17T19:24:45.669Z,5.60
2018-07-17T19:27:16.539Z,5.63
2018-07-17T19:29:45.388Z,4.73
2018-07-17T19:32:13.540Z,4.90
2018-07-17T19:34:46.884Z,5.30
2018-07-17T19:40:00.631Z,5.23
2018-07-17T19:42:29.646Z,5.03
2018-07-17T19:45:00.638Z,5.60
2018-07-17T19:47:29.213Z,4.77
2018-07-17T19:49:58.229Z,4.70
2018-07-17T19:52:26.837Z,4.80
2018-07-17T19:57:29.649Z,5.43
2018-07-17T19:59:58.203Z,5.17
2018-07-17T20:02:28.117Z,5.70
2018-07-17T20:04:59.440Z,5.27
2018-07-17T20:07:27.887Z,5.43
2018-07-17T20:09:56.314Z,5.53
2018-07-17T20:12:29.384Z,5.37
2018-07-17T20:14:57.777Z,4.20
2018-07-17T20:17:28.083Z,4.60
2018-07-17T20:19:59.509Z,5.00
2018-07-17T20:22:28.610Z,4.33
2018-07-17T20:24:58.606Z,4.77
2018-07-17T20:27:27.129Z,4.97
2018-07-17T20:29:55.605Z,3.83
2018-07-17T20:32:24.647Z,4.30
2018-07-17T20:34:53.929Z,4.53
2018-07-17T20:37:22.023Z,5.60
2018-07-17T20:39:50.164Z,6.87
2018-07-17T20:42:18.351Z,5.10
2018-07-17T20:44:46.773Z,5.30
2018-07-17T20:47:15.880Z,4.77
2018-07-17T20:49:44.075Z,4.50
2018-07-17T20:52:12.664Z,4.93
2018-07-17T20:54:41.897Z,5.70
2018-07-17T20:57:10.486Z,5.13
2018-07-17T20:59:39.942Z,4.23
2018-07-17T21:02:08.489Z,5.23
2018-07-17T21:04:36.556Z,4.30
2018-07-17T21:07:04.840Z,3.90
2018-07-17T21:09:33.052Z,4.97
2018-07-17T21:12:01.574Z,4.57
2018-07-17T21:14:30.000Z,5.27
2018-07-17T21:16:58.266Z,4.70
2018-07-17T21:19:27.047Z,4.53
2018-07-17T21:21:55.214Z,4.40
2018-07-17T21:24:23.689Z,5.40
2018-07-17T21:26:52.126Z,4.40
2018-07-17T21:29:20.270Z,4.80
2018-07-17T21:31:49.484Z,4.70
2018-07-17T21:34:17.589Z,5.13
2018-07-17T21:36:45.617Z,4.13
2018-07-17T21:39:13.698Z,4.40
2018-07-17T21:41:41.701Z,4.50
2018-07-17T21:44:09.915Z,4.87
2018-07-17T21:46:38.073Z,4.87
2018-07-17T21:49:06.450Z,3.53
2018-07-17T21:51:34.664Z,4.27
2018-07-17T21:54:02.893Z,4.17
2018-07-17T21:56:31.219Z,4.53
2018-07-17T21:58:59.391Z,4.00
2018-07-17T22:01:28.144Z,4.37
2018-07-17T22:03:56.285Z,4.63
2018-07-17T22:06:24.634Z,3.63
2018-07-17T22:08:52.737Z,4.80
2018-07-17T22:11:20.994Z,5.13
2018-07-17T22:13:49.185Z,4.80
2018-07-17T22:16:17.369Z,4.85
2018-07-17T22:18:46.146Z,5.10
2018-07-17T22:21:14.091Z,4.33
2018-07-17T22:23:43.086Z,4.67
2018-07-17T22:26:11.215Z,5.37
2018-07-17T22:28:39.214Z,3.83
2018-07-17T22:31:07.315Z,4.03
2018-07-17T22:33:36.362Z,4.70
2018-07-17T22:36:04.616Z,4.10
2018-07-17T22:38:33.044Z,3.83
2018-07-17T22:41:01.866Z,4.00
2018-07-17T22:43:30.142Z,3.83
2018-07-17T22:45:59.544Z,3.80
2018-07-17T22:48:28.174Z,3.93
2018-07-17T22:50:56.348Z,4.00
2018-07-17T22:53:24.317Z,4.50
2018-07-17T22:55:52.317Z,4.90
2018-07-17T22:58:22.413Z,5.90
2018-07-17T23:00:50.696Z,5.00
2018-07-17T23:03:18.740Z,4.03
2018-07-17T23:05:46.708Z,4.63
2018-07-17T23:08:15.773Z,3.77
2018-07-17T23:10:43.741Z,4.00
2018-07-17T23:13:11.796Z,3.80
2018-07-17T23:15:39.733Z,4.57
2018-07-17T23:18:07.775Z,4.93
2018-07-17T23:20:35.912Z,4.83
2018-07-17T23:23:04.017Z,4.17
2018-07-17T23:25:32.923Z,5.30
2018-07-17T23:28:01.360Z,4.67
2018-07-17T23:30:29.494Z,4.90
2018-07-17T23:32:57.684Z,4.37
2018-07-17T23:35:26.698Z,4.90
2018-07-17T23:37:54.751Z,5.67
2018-07-17T23:40:23.039Z,5.23
2018-07-17T23:42:51.428Z,4.70
2018-07-17T23:45:19.589Z,4.00
2018-07-17T23:47:48.398Z,5.07
2018-07-17T23:50:16.540Z,4.73
2018-07-17T23:52:44.461Z,4.50
2018-07-17T23:55:12.456Z,4.67
2018-07-17T23:57:40.576Z,5.00
